sensor_id;sensor_type;location;lat;lon;timestamp;pressure;altitude;pressure_sealevel;temperature;humidity
70954;BME280;58618;47.490;8.736;2023-07-08T00:00:14;96625.28;;;17.31;100.00
70954;BME280;58618;47.490;8.736;2023-07-08T00:03:02;96625.25;;;17.48;100.00
70954;BME280;58618;47.490;8.736;2023-07-08T00:05:53;96640.41;;;17.55;100.00
70954;BME280;58618;47.490;8.736;2023-07-08T00:08:42;96651.28;;;17.57;100.00
70954;BME280;58618;47.490;8.736;2023-07-08T00:11:29;96669.06;;;17.72;100.00
70954;BME280;58618;47.490;8.736;2023-07-08T00:14:18;96700.75;;;17.91;100.00
70954;BME280;58618;47.490;8.736;2023-07-08T00:17:10;96721.03;;;18.24;100.00
70954;BME280;58618;47.490;8.736;2023-07-08T00:19:58;96724.34;;;18.62;100.00
70954;BME280;58618;47.490;8.736;2023-07-08T00:22:45;96736.03;;;18.85;98.88
70954;BME280;58618;47.490;8.736;2023-07-08T00:25:36;96739.13;;;18.99;97.01
70954;BME280;58618;47.490;8.736;2023-07-08T00:28:23;96734.75;;;18.91;95.90
70954;BME280;58618;47.490;8.736;2023-07-08T00:31:12;96739.84;;;19.09;94.53
70954;BME280;58618;47.490;8.736;2023-07-08T00:34:00;96734.16;;;19.07;100.00
70954;BME280;58618;47.490;8.736;2023-07-08T00:36:49;96717.72;;;18.85;100.00
70954;BME280;58618;47.490;8.736;2023-07-08T00:39:36;96711.19;;;18.50;100.00
70954;BME280;58618;47.490;8.736;2023-07-08T00:42:24;96697.34;;;17.99;100.00
70954;BME280;58618;47.490;8.736;2023-07-08T00:45:30;96675.88;;;17.47;100.00
70954;BME280;58618;47.490;8.736;2023-07-08T00:48:24;96653.22;;;17.30;100.00
70954;BME280;58618;47.490;8.736;2023-07-08T00:51:12;96641.16;;;17.17;100.00
70954;BME280;58618;47.490;8.736;2023-07-08T00:53:59;96642.38;;;17.11;100.00
70954;BME280;58618;47.490;8.736;2023-07-08T00:56:49;96643.63;;;17.05;100.00
70954;BME280;58618;47.490;8.736;2023-07-08T00:59:43;96642.28;;;16.91;100.00
70954;BME280;58618;47.490;8.736;2023-07-08T01:02:36;96636.13;;;16.78;100.00
70954;BME280;58618;47.490;8.736;2023-07-08T01:05:28;96668.78;;;17.01;100.00
70954;BME280;58618;47.490;8.736;2023-07-08T01:08:16;96690.38;;;17.02;100.00
70954;BME280;58618;47.490;8.736;2023-07-08T01:11:04;96695.16;;;16.91;100.00
70954;BME280;58618;47.490;8.736;2023-07-08T01:13:52;96705.09;;;16.98;100.00
70954;BME280;58618;47.490;8.736;2023-07-08T01:16:39;96683.03;;;16.95;100.00
70954;BME280;58618;47.490;8.736;2023-07-08T01:19:27;96652.25;;;16.80;100.00
70954;BME280;58618;47.490;8.736;2023-07-08T01:22:20;96628.94;;;16.58;100.00
70954;BME280;58618;47.490;8.736;2023-07-08T01:25:08;96658.53;;;16.70;100.00
70954;BME280;58618;47.490;8.736;2023-07-08T01:27:57;96667.72;;;16.68;100.00
70954;BME280;58618;47.490;8.736;2023-07-08T01:30:45;96681.78;;;16.58;100.00
70954;BME280;58618;47.490;8.736;2023-07-08T01:33:33;96662.94;;;16.53;100.00
70954;BME280;58618;47.490;8.736;2023-07-08T01:36:21;96677.38;;;16.59;100.00
70954;BME280;58618;47.490;8.736;2023-07-08T01:39:13;96689.03;;;16.70;100.00
70954;BME280;58618;47.490;8.736;2023-07-08T01:42:02;96687.78;;;16.59;100.00
70954;BME280;58618;47.490;8.736;2023-07-08T01:44:49;96680.53;;;16.56;100.00
70954;BME280;58618;47.490;8.736;2023-07-08T01:47:36;96691.16;;;16.68;100.00
70954;BME280;58618;47.490;8.736;2023-07-08T01:50:25;96684.25;;;16.72;100.00
70954;BME280;58618;47.490;8.736;2023-07-08T01:53:15;96691.56;;;16.53;100.00
70954;BME280;58618;47.490;8.736;2023-07-08T01:56:05;96686.53;;;16.47;100.00
70954;BME280;58618;47.490;8.736;2023-07-08T01:58:53;96679.31;;;16.44;100.00
70954;BME280;58618;47.490;8.736;2023-07-08T02:01:40;96683.44;;;16.45;100.00
70954;BME280;58618;47.490;8.736;2023-07-08T02:04:27;96688.03;;;16.40;100.00
70954;BME280;58618;47.490;8.736;2023-07-08T02:07:16;96683.28;;;16.42;100.00
70954;BME280;58618;47.490;8.736;2023-07-08T02:10:04;96683.16;;;16.38;100.00
70954;BME280;58618;47.490;8.736;2023-07-08T02:12:53;96670.88;;;16.30;100.00
70954;BME280;58618;47.490;8.736;2023-07-08T02:15:40;96666.56;;;16.17;100.00
70954;BME280;58618;47.490;8.736;2023-07-08T02:18:28;96655.22;;;16.13;100.00
70954;BME280;58618;47.490;8.736;2023-07-08T02:21:18;96662.88;;;16.18;100.00
70954;BME280;58618;47.490;8.736;2023-07-08T02:24:06;96671.78;;;16.34;100.00
70954;BME280;58618;47.490;8.736;2023-07-08T02:26:53;96662.63;;;16.28;100.00
70954;BME280;58618;47.490;8.736;2023-07-08T02:29:42;96662.25;;;16.13;100.00
70954;BME280;58618;47.490;8.736;2023-07-08T02:32:29;96663.50;;;16.15;100.00
70954;BME280;58618;47.490;8.736;2023-07-08T02:35:20;96641.91;;;16.06;100.00
70954;BME280;58618;47.490;8.736;2023-07-08T02:38:07;96646.34;;;16.14;100.00
70954;BME280;58618;47.490;8.736;2023-07-08T02:40:55;96650.00;;;16.13;100.00
70954;BME280;58618;47.490;8.736;2023-07-08T02:43:43;96653.41;;;16.22;100.00
70954;BME280;58618;47.490;8.736;2023-07-08T02:46:31;96664.59;;;16.31;100.00
70954;BME280;58618;47.490;8.736;2023-07-08T02:49:19;96661.66;;;16.24;100.00
70954;BME280;58618;47.490;8.736;2023-07-08T02:52:07;96662.09;;;16.09;100.00
70954;BME280;58618;47.490;8.736;2023-07-08T02:54:54;96666.88;;;16.07;100.00
70954;BME280;58618;47.490;8.736;2023-07-08T02:57:41;96682.78;;;16.14;100.00
70954;BME280;58618;47.490;8.736;2023-07-08T03:00:29;96686.16;;;16.23;100.00
70954;BME280;58618;47.490;8.736;2023-07-08T03:03:17;96691.25;;;16.37;100.00
70954;BME280;58618;47.490;8.736;2023-07-08T03:06:05;96692.91;;;16.24;100.00
70954;BME280;58618;47.490;8.736;2023-07-08T03:08:52;96701.47;;;16.16;100.00
70954;BME280;58618;47.490;8.736;2023-07-08T03:11:39;96715.56;;;16.15;100.00
70954;BME280;58618;47.490;8.736;2023-07-08T03:14:27;96717.94;;;16.03;100.00
70954;BME280;58618;47.490;8.736;2023-07-08T03:17:14;96741.84;;;16.05;100.00
70954;BME280;58618;47.490;8.736;2023-07-08T03:20:04;96736.81;;;16.09;100.00
70954;BME280;58618;47.490;8.736;2023-07-08T03:22:52;96730.78;;;15.91;100.00
70954;BME280;58618;47.490;8.736;2023-07-08T03:25:40;96744.44;;;15.96;100.00
70954;BME280;58618;47.490;8.736;2023-07-08T03:28:28;96738.72;;;15.86;100.00
70954;BME280;58618;47.490;8.736;2023-07-08T03:31:16;96734.44;;;15.90;100.00
70954;BME280;58618;47.490;8.736;2023-07-08T03:34:03;96719.28;;;15.92;100.00
70954;BME280;58618;47.490;8.736;2023-07-08T03:36:52;96707.50;;;15.86;100.00
70954;BME280;58618;47.490;8.736;2023-07-08T03:39:39;96690.94;;;15.82;100.00
70954;BME280;58618;47.490;8.736;2023-07-08T03:42:26;96699.22;;;15.84;100.00
70954;BME280;58618;47.490;8.736;2023-07-08T03:45:14;96730.91;;;15.86;100.00
70954;BME280;58618;47.490;8.736;2023-07-08T03:48:01;96744.31;;;16.10;100.00
70954;BME280;58618;47.490;8.736;2023-07-08T03:50:49;96756.50;;;16.40;100.00
70954;BME280;58618;47.490;8.736;2023-07-08T03:53:38;96763.25;;;16.50;100.00
70954;BME280;58618;47.490;8.736;2023-07-08T03:56:25;96756.44;;;16.63;100.00
70954;BME280;58618;47.490;8.736;2023-07-08T03:59:13;96745.84;;;16.59;100.00
70954;BME280;58618;47.490;8.736;2023-07-08T04:02:00;96756.06;;;16.56;100.00
70954;BME280;58618;47.490;8.736;2023-07-08T04:04:48;96753.94;;;16.58;100.00
70954;BME280;58618;47.490;8.736;2023-07-08T04:07:36;96751.97;;;16.63;100.00
70954;BME280;58618;47.490;8.736;2023-07-08T04:10:25;96761.16;;;16.61;100.00
70954;BME280;58618;47.490;8.736;2023-07-08T04:13:12;96762.81;;;16.57;100.00
70954;BME280;58618;47.490;8.736;2023-07-08T04:16:02;96764.97;;;16.55;100.00
70954;BME280;58618;47.490;8.736;2023-07-08T04:18:51;96775.97;;;16.52;100.00
70954;BME280;58618;47.490;8.736;2023-07-08T04:21:39;96766.78;;;16.45;100.00
70954;BME280;58618;47.490;8.736;2023-07-08T04:24:27;96749.31;;;16.46;100.00
70954;BME280;58618;47.490;8.736;2023-07-08T04:27:16;96750.56;;;16.48;100.00
70954;BME280;58618;47.490;8.736;2023-07-08T04:30:06;96741.69;;;16.50;100.00
70954;BME280;58618;47.490;8.736;2023-07-08T04:32:53;96750.38;;;16.45;100.00
70954;BME280;58618;47.490;8.736;2023-07-08T04:35:43;96745.16;;;16.28;100.00
70954;BME280;58618;47.490;8.736;2023-07-08T04:38:31;96758.19;;;16.36;100.00
70954;BME280;58618;47.490;8.736;2023-07-08T04:41:18;96773.19;;;16.39;100.00
70954;BME280;58618;47.490;8.736;2023-07-08T04:44:06;96786.94;;;16.31;100.00
70954;BME280;58618;47.490;8.736;2023-07-08T04:46:56;96791.53;;;16.34;100.00
70954;BME280;58618;47.490;8.736;2023-07-08T04:49:43;96797.09;;;16.41;100.00
70954;BME280;58618;47.490;8.736;2023-07-08T04:52:30;96807.50;;;16.41;100.00
70954;BME280;58618;47.490;8.736;2023-07-08T04:55:18;96820.53;;;16.41;100.00
70954;BME280;58618;47.490;8.736;2023-07-08T04:58:06;96834.94;;;16.47;100.00
70954;BME280;58618;47.490;8.736;2023-07-08T05:00:54;96852.31;;;16.61;100.00
70954;BME280;58618;47.490;8.736;2023-07-08T05:03:41;96853.75;;;16.75;100.00
70954;BME280;58618;47.490;8.736;2023-07-08T05:06:29;96860.22;;;16.86;100.00
70954;BME280;58618;47.490;8.736;2023-07-08T05:09:16;96860.66;;;16.80;100.00
70954;BME280;58618;47.490;8.736;2023-07-08T05:12:05;96853.56;;;16.72;100.00
70954;BME280;58618;47.490;8.736;2023-07-08T05:14:52;96859.25;;;16.65;100.00
70954;BME280;58618;47.490;8.736;2023-07-08T05:17:41;96869.16;;;16.55;100.00
70954;BME280;58618;47.490;8.736;2023-07-08T05:20:28;96874.78;;;16.48;100.00
70954;BME280;58618;47.490;8.736;2023-07-08T05:23:18;96886.00;;;16.57;100.00
70954;BME280;58618;47.490;8.736;2023-07-08T05:26:06;96898.63;;;16.64;100.00
70954;BME280;58618;47.490;8.736;2023-07-08T05:28:54;96913.75;;;16.62;100.00
70954;BME280;58618;47.490;8.736;2023-07-08T05:31:41;96914.81;;;16.61;100.00
70954;BME280;58618;47.490;8.736;2023-07-08T05:34:30;96912.44;;;16.73;100.00
70954;BME280;58618;47.490;8.736;2023-07-08T05:37:17;96909.53;;;16.74;100.00
70954;BME280;58618;47.490;8.736;2023-07-08T05:40:08;96914.44;;;16.76;100.00
70954;BME280;58618;47.490;8.736;2023-07-08T05:42:55;96925.47;;;16.73;100.00
70954;BME280;58618;47.490;8.736;2023-07-08T05:45:43;96930.19;;;16.71;100.00
70954;BME280;58618;47.490;8.736;2023-07-08T05:48:30;96931.16;;;16.75;100.00
70954;BME280;58618;47.490;8.736;2023-07-08T05:51:20;96931.47;;;16.82;100.00
70954;BME280;58618;47.490;8.736;2023-07-08T05:54:07;96936.66;;;16.82;100.00
70954;BME280;58618;47.490;8.736;2023-07-08T05:56:54;96952.31;;;16.82;100.00
70954;BME280;58618;47.490;8.736;2023-07-08T05:59:42;96957.72;;;16.94;100.00
70954;BME280;58618;47.490;8.736;2023-07-08T06:02:30;96948.69;;;16.92;100.00
70954;BME280;58618;47.490;8.736;2023-07-08T06:05:17;96959.56;;;16.94;100.00
70954;BME280;58618;47.490;8.736;2023-07-08T06:08:07;96969.81;;;16.90;100.00
70954;BME280;58618;47.490;8.736;2023-07-08T06:10:54;96976.59;;;16.91;100.00
70954;BME280;58618;47.490;8.736;2023-07-08T06:13:41;96975.06;;;16.99;100.00
70954;BME280;58618;47.490;8.736;2023-07-08T06:16:29;96972.94;;;17.09;100.00
70954;BME280;58618;47.490;8.736;2023-07-08T06:19:16;96973.34;;;17.34;100.00
70954;BME280;58618;47.490;8.736;2023-07-08T06:22:04;96967.84;;;17.44;100.00
70954;BME280;58618;47.490;8.736;2023-07-08T06:24:53;96952.97;;;17.61;100.00
70954;BME280;58618;47.490;8.736;2023-07-08T06:27:40;96954.53;;;18.05;100.00
70954;BME280;58618;47.490;8.736;2023-07-08T06:30:28;96960.16;;;18.59;100.00
70954;BME280;58618;47.490;8.736;2023-07-08T06:33:15;96964.28;;;19.07;100.00
70954;BME280;58618;47.490;8.736;2023-07-08T06:36:03;96968.44;;;18.99;100.00
70954;BME280;58618;47.490;8.736;2023-07-08T06:38:50;96961.28;;;18.87;100.00
70954;BME280;58618;47.490;8.736;2023-07-08T06:41:39;96961.41;;;18.91;100.00
70954;BME280;58618;47.490;8.736;2023-07-08T06:44:26;96958.91;;;19.03;100.00
70954;BME280;58618;47.490;8.736;2023-07-08T06:47:13;96954.75;;;19.02;100.00
70954;BME280;58618;47.490;8.736;2023-07-08T06:50:00;96961.97;;;19.05;100.00
70954;BME280;58618;47.490;8.736;2023-07-08T06:52:48;96967.34;;;19.09;100.00
70954;BME280;58618;47.490;8.736;2023-07-08T06:55:35;96952.81;;;19.20;100.00
70954;BME280;58618;47.490;8.736;2023-07-08T06:58:24;96965.16;;;19.40;100.00
70954;BME280;58618;47.490;8.736;2023-07-08T07:01:11;96962.91;;;19.30;100.00
70954;BME280;58618;47.490;8.736;2023-07-08T07:03:59;96971.09;;;19.28;100.00
70954;BME280;58618;47.490;8.736;2023-07-08T07:06:47;96974.38;;;19.46;100.00
70954;BME280;58618;47.490;8.736;2023-07-08T07:09:34;96965.44;;;19.47;100.00
70954;BME280;58618;47.490;8.736;2023-07-08T07:12:26;96973.84;;;19.82;100.00
70954;BME280;58618;47.490;8.736;2023-07-08T07:15:15;96972.41;;;19.85;100.00
70954;BME280;58618;47.490;8.736;2023-07-08T07:18:03;96963.19;;;20.20;100.00
70954;BME280;58618;47.490;8.736;2023-07-08T07:20:53;96961.84;;;20.35;100.00
70954;BME280;58618;47.490;8.736;2023-07-08T07:23:41;96963.38;;;20.15;100.00
70954;BME280;58618;47.490;8.736;2023-07-08T07:26:28;96968.97;;;20.46;100.00
70954;BME280;58618;47.490;8.736;2023-07-08T07:29:17;96961.31;;;20.41;100.00
70954;BME280;58618;47.490;8.736;2023-07-08T07:32:07;96957.09;;;20.61;100.00
70954;BME280;58618;47.490;8.736;2023-07-08T07:34:55;96957.63;;;20.54;100.00
70954;BME280;58618;47.490;8.736;2023-07-08T07:37:43;96950.84;;;20.20;100.00
70954;BME280;58618;47.490;8.736;2023-07-08T07:40:31;96948.13;;;20.17;100.00
70954;BME280;58618;47.490;8.736;2023-07-08T07:43:18;96944.38;;;20.06;100.00
70954;BME280;58618;47.490;8.736;2023-07-08T07:46:05;96944.69;;;19.83;100.00
70954;BME280;58618;47.490;8.736;2023-07-08T07:48:55;96933.59;;;19.87;100.00
70954;BME280;58618;47.490;8.736;2023-07-08T07:51:42;96931.75;;;19.87;100.00
70954;BME280;58618;47.490;8.736;2023-07-08T07:54:29;96928.25;;;20.16;100.00
70954;BME280;58618;47.490;8.736;2023-07-08T07:57:17;96925.16;;;20.02;100.00
70954;BME280;58618;47.490;8.736;2023-07-08T08:00:05;96920.38;;;20.04;100.00
70954;BME280;58618;47.490;8.736;2023-07-08T08:02:53;96920.59;;;20.11;100.00
70954;BME280;58618;47.490;8.736;2023-07-08T08:05:41;96918.56;;;20.29;100.00
70954;BME280;58618;47.490;8.736;2023-07-08T08:08:29;96914.94;;;20.54;100.00
70954;BME280;58618;47.490;8.736;2023-07-08T08:11:16;96915.94;;;20.74;100.00
70954;BME280;58618;47.490;8.736;2023-07-08T08:14:03;96914.63;;;21.16;100.00
70954;BME280;58618;47.490;8.736;2023-07-08T08:16:51;96914.69;;;21.44;100.00
70954;BME280;58618;47.490;8.736;2023-07-08T08:19:38;96908.81;;;21.75;100.00
70954;BME280;58618;47.490;8.736;2023-07-08T08:22:27;96906.88;;;21.60;100.00
70954;BME280;58618;47.490;8.736;2023-07-08T08:25:14;96902.91;;;22.06;100.00
70954;BME280;58618;47.490;8.736;2023-07-08T08:28:02;96902.56;;;22.07;100.00
70954;BME280;58618;47.490;8.736;2023-07-08T08:30:50;96887.94;;;22.38;100.00
70954;BME280;58618;47.490;8.736;2023-07-08T08:33:38;96890.22;;;22.70;100.00
70954;BME280;58618;47.490;8.736;2023-07-08T08:36:25;96885.75;;;22.71;100.00
70954;BME280;58618;47.490;8.736;2023-07-08T08:39:13;96877.91;;;22.59;100.00
70954;BME280;58618;47.490;8.736;2023-07-08T08:42:01;96871.44;;;23.03;100.00
70954;BME280;58618;47.490;8.736;2023-07-08T08:44:49;96864.34;;;22.88;99.70
70954;BME280;58618;47.490;8.736;2023-07-08T08:47:38;96859.84;;;23.24;100.00
70954;BME280;58618;47.490;8.736;2023-07-08T08:50:31;96855.84;;;23.87;100.00
70954;BME280;58618;47.490;8.736;2023-07-08T08:53:20;96859.78;;;24.65;100.00
70954;BME280;58618;47.490;8.736;2023-07-08T08:56:16;96856.72;;;24.37;91.31
70954;BME280;58618;47.490;8.736;2023-07-08T08:59:12;96861.88;;;25.35;87.10
70954;BME280;58618;47.490;8.736;2023-07-08T09:02:21;96858.50;;;25.05;83.16
70954;BME280;58618;47.490;8.736;2023-07-08T09:05:11;96856.75;;;24.40;85.34
70954;BME280;58618;47.490;8.736;2023-07-08T09:08:05;96847.06;;;24.48;92.23
70954;BME280;58618;47.490;8.736;2023-07-08T09:11:01;96847.53;;;24.54;89.62
70954;BME280;58618;47.490;8.736;2023-07-08T09:13:52;96846.38;;;24.51;86.67
70954;BME280;58618;47.490;8.736;2023-07-08T09:16:44;96854.09;;;24.63;84.32
70954;BME280;58618;47.490;8.736;2023-07-08T09:19:38;96862.81;;;24.41;84.14
70954;BME280;58618;47.490;8.736;2023-07-08T09:22:34;96868.59;;;25.29;79.65
70954;BME280;58618;47.490;8.736;2023-07-08T09:25:26;96879.69;;;25.72;81.99
70954;BME280;58618;47.490;8.736;2023-07-08T09:28:16;96879.59;;;25.61;85.25
70954;BME280;58618;47.490;8.736;2023-07-08T09:31:07;96876.38;;;26.15;76.02
70954;BME280;58618;47.490;8.736;2023-07-08T09:34:05;96883.84;;;26.46;82.01
70954;BME280;58618;47.490;8.736;2023-07-08T09:36:53;96876.50;;;27.31;74.43
70954;BME280;58618;47.490;8.736;2023-07-08T09:39:40;96877.56;;;28.17;61.78
70954;BME280;58618;47.490;8.736;2023-07-08T09:42:30;96873.03;;;28.39;60.92
70954;BME280;58618;47.490;8.736;2023-07-08T09:45:20;96864.66;;;28.30;68.69
70954;BME280;58618;47.490;8.736;2023-07-08T09:48:16;96880.59;;;28.23;61.25
70954;BME280;58618;47.490;8.736;2023-07-08T09:51:04;96876.06;;;28.34;64.15
70954;BME280;58618;47.490;8.736;2023-07-08T09:53:54;96877.34;;;27.50;69.05
70954;BME280;58618;47.490;8.736;2023-07-08T09:56:43;96876.03;;;28.59;59.40
70954;BME280;58618;47.490;8.736;2023-07-08T09:59:35;96881.81;;;27.39;63.94
70954;BME280;58618;47.490;8.736;2023-07-08T10:02:29;96874.13;;;27.12;60.37
70954;BME280;58618;47.490;8.736;2023-07-08T10:05:22;96878.38;;;26.25;67.61
70954;BME280;58618;47.490;8.736;2023-07-08T10:08:15;96874.31;;;27.55;66.52
70954;BME280;58618;47.490;8.736;2023-07-08T10:11:11;96884.22;;;27.68;61.40
70954;BME280;58618;47.490;8.736;2023-07-08T10:14:04;96883.50;;;27.75;60.33
70954;BME280;58618;47.490;8.736;2023-07-08T10:16:54;96877.41;;;27.71;66.34
70954;BME280;58618;47.490;8.736;2023-07-08T10:19:42;96881.63;;;27.83;63.20
70954;BME280;58618;47.490;8.736;2023-07-08T10:22:38;96891.59;;;28.39;57.72
70954;BME280;58618;47.490;8.736;2023-07-08T10:25:32;96892.72;;;28.31;59.88
70954;BME280;58618;47.490;8.736;2023-07-08T10:28:31;96891.06;;;27.73;62.53
70954;BME280;58618;47.490;8.736;2023-07-08T10:31:26;96885.00;;;27.69;55.79
70954;BME280;58618;47.490;8.736;2023-07-08T10:34:36;96882.84;;;28.13;56.18
70954;BME280;58618;47.490;8.736;2023-07-08T10:37:29;96881.75;;;28.50;51.69
70954;BME280;58618;47.490;8.736;2023-07-08T10:40:29;96880.59;;;28.65;53.75
70954;BME280;58618;47.490;8.736;2023-07-08T10:43:37;96887.34;;;27.95;58.76
70954;BME280;58618;47.490;8.736;2023-07-08T10:46:37;96893.81;;;27.15;59.94
70954;BME280;58618;47.490;8.736;2023-07-08T10:49:40;96894.84;;;27.65;64.25
70954;BME280;58618;47.490;8.736;2023-07-08T10:52:46;96906.28;;;27.97;67.22
70954;BME280;58618;47.490;8.736;2023-07-08T10:55:44;96898.66;;;27.75;69.17
70954;BME280;58618;47.490;8.736;2023-07-08T10:59:04;96896.47;;;27.15;76.84
70954;BME280;58618;47.490;8.736;2023-07-08T11:02:20;96899.97;;;26.75;85.30
70954;BME280;58618;47.490;8.736;2023-07-08T11:05:23;96904.94;;;26.83;80.84
70954;BME280;58618;47.490;8.736;2023-07-08T11:08:19;96901.88;;;26.78;81.21
70954;BME280;58618;47.490;8.736;2023-07-08T11:11:16;96905.78;;;26.91;82.65
70954;BME280;58618;47.490;8.736;2023-07-08T11:14:12;96910.09;;;26.66;78.71
70954;BME280;58618;47.490;8.736;2023-07-08T11:17:08;96902.66;;;26.34;80.77
70954;BME280;58618;47.490;8.736;2023-07-08T11:20:00;96905.78;;;26.06;88.50
70954;BME280;58618;47.490;8.736;2023-07-08T11:22:52;96907.03;;;25.86;83.19
70954;BME280;58618;47.490;8.736;2023-07-08T11:25:42;96905.47;;;26.15;85.91
70954;BME280;58618;47.490;8.736;2023-07-08T11:28:32;96913.56;;;26.29;88.41
70954;BME280;58618;47.490;8.736;2023-07-08T11:31:20;96907.75;;;25.80;92.08
70954;BME280;58618;47.490;8.736;2023-07-08T11:34:11;96908.81;;;25.45;90.25
70954;BME280;58618;47.490;8.736;2023-07-08T11:37:00;96906.38;;;25.93;84.18
70954;BME280;58618;47.490;8.736;2023-07-08T11:39:53;96898.22;;;25.42;89.57
70954;BME280;58618;47.490;8.736;2023-07-08T11:42:43;96904.16;;;25.65;86.48
70954;BME280;58618;47.490;8.736;2023-07-08T11:45:35;96896.56;;;25.93;86.87
70954;BME280;58618;47.490;8.736;2023-07-08T11:48:25;96897.88;;;25.77;95.04
70954;BME280;58618;47.490;8.736;2023-07-08T11:51:18;96894.84;;;25.15;92.84
70954;BME280;58618;47.490;8.736;2023-07-08T11:54:12;96899.41;;;25.48;88.43
70954;BME280;58618;47.490;8.736;2023-07-08T11:57:04;96898.78;;;25.91;89.00
70954;BME280;58618;47.490;8.736;2023-07-08T12:00:17;96897.53;;;26.15;84.57
70954;BME280;58618;47.490;8.736;2023-07-08T12:03:20;96889.09;;;25.39;87.44
70954;BME280;58618;47.490;8.736;2023-07-08T12:06:42;96895.47;;;25.05;92.06
70954;BME280;58618;47.490;8.736;2023-07-08T12:09:36;96891.25;;;25.90;96.39
70954;BME280;58618;47.490;8.736;2023-07-08T12:12:28;96883.06;;;26.42;88.71
70954;BME280;58618;47.490;8.736;2023-07-08T12:15:21;96880.84;;;26.99;80.81
70954;BME280;58618;47.490;8.736;2023-07-08T12:18:13;96879.06;;;26.63;83.37
70954;BME280;58618;47.490;8.736;2023-07-08T12:21:03;96891.06;;;26.49;81.37
70954;BME280;58618;47.490;8.736;2023-07-08T12:23:50;96885.53;;;26.69;82.90
70954;BME280;58618;47.490;8.736;2023-07-08T12:26:37;96879.31;;;26.98;74.92
70954;BME280;58618;47.490;8.736;2023-07-08T12:29:25;96886.41;;;26.32;80.00
70954;BME280;58618;47.490;8.736;2023-07-08T12:32:14;96872.47;;;26.90;80.97
70954;BME280;58618;47.490;8.736;2023-07-08T12:35:01;96878.69;;;27.19;78.77
70954;BME280;58618;47.490;8.736;2023-07-08T12:37:53;96874.97;;;27.34;73.57
70954;BME280;58618;47.490;8.736;2023-07-08T12:40:41;96874.25;;;27.34;77.95
70954;BME280;58618;47.490;8.736;2023-07-08T12:43:28;96869.66;;;27.30;80.31
70954;BME280;58618;47.490;8.736;2023-07-08T12:46:18;96866.00;;;27.53;70.16
70954;BME280;58618;47.490;8.736;2023-07-08T12:49:05;96869.16;;;26.53;71.99
70954;BME280;58618;47.490;8.736;2023-07-08T12:51:53;96880.13;;;26.14;71.83
70954;BME280;58618;47.490;8.736;2023-07-08T12:54:42;96870.81;;;25.87;78.63
70954;BME280;58618;47.490;8.736;2023-07-08T12:57:29;96871.31;;;25.62;83.42
70954;BME280;58618;47.490;8.736;2023-07-08T13:00:22;96869.63;;;25.51;79.29
70954;BME280;58618;47.490;8.736;2023-07-08T13:03:14;96865.47;;;25.20;81.45
70954;BME280;58618;47.490;8.736;2023-07-08T13:06:03;96867.22;;;25.39;80.81
70954;BME280;58618;47.490;8.736;2023-07-08T13:08:50;96859.66;;;25.37;82.90
70954;BME280;58618;47.490;8.736;2023-07-08T13:11:41;96861.22;;;25.72;83.36
70954;BME280;58618;47.490;8.736;2023-07-08T13:14:28;96861.66;;;25.81;82.63
70954;BME280;58618;47.490;8.736;2023-07-08T13:17:16;96864.72;;;25.83;78.85
70954;BME280;58618;47.490;8.736;2023-07-08T13:20:05;96853.69;;;25.74;78.15
70954;BME280;58618;47.490;8.736;2023-07-08T13:22:57;96857.13;;;25.78;85.13
70954;BME280;58618;47.490;8.736;2023-07-08T13:25:47;96854.88;;;25.80;78.65
70954;BME280;58618;47.490;8.736;2023-07-08T13:28:37;96856.28;;;25.70;73.67
70954;BME280;58618;47.490;8.736;2023-07-08T13:31:31;96846.97;;;25.83;78.74
70954;BME280;58618;47.490;8.736;2023-07-08T13:34:20;96841.41;;;25.92;76.21
70954;BME280;58618;47.490;8.736;2023-07-08T13:37:12;96842.84;;;25.86;77.64
70954;BME280;58618;47.490;8.736;2023-07-08T13:40:00;96840.69;;;25.95;76.75
70954;BME280;58618;47.490;8.736;2023-07-08T13:42:49;96841.66;;;26.20;75.22
70954;BME280;58618;47.490;8.736;2023-07-08T13:45:43;96834.78;;;26.12;73.04
70954;BME280;58618;47.490;8.736;2023-07-08T13:48:37;96837.06;;;26.14;68.84
70954;BME280;58618;47.490;8.736;2023-07-08T13:51:30;96837.81;;;26.14;69.38
70954;BME280;58618;47.490;8.736;2023-07-08T13:54:21;96821.25;;;26.17;70.72
70954;BME280;58618;47.490;8.736;2023-07-08T13:57:10;96840.22;;;26.26;64.14
70954;BME280;58618;47.490;8.736;2023-07-08T13:59:58;96831.97;;;26.31;66.26
70954;BME280;58618;47.490;8.736;2023-07-08T14:02:47;96836.09;;;26.29;64.95
70954;BME280;58618;47.490;8.736;2023-07-08T14:05:36;96828.91;;;26.29;62.70
70954;BME280;58618;47.490;8.736;2023-07-08T14:08:24;96833.47;;;26.32;63.29
70954;BME280;58618;47.490;8.736;2023-07-08T14:11:11;96823.63;;;26.29;66.58
70954;BME280;58618;47.490;8.736;2023-07-08T14:13:58;96829.03;;;26.43;63.67
70954;BME280;58618;47.490;8.736;2023-07-08T14:16:48;96821.44;;;26.38;60.57
70954;BME280;58618;47.490;8.736;2023-07-08T14:19:37;96816.19;;;26.49;60.78
70954;BME280;58618;47.490;8.736;2023-07-08T14:22:26;96817.84;;;26.68;58.45
70954;BME280;58618;47.490;8.736;2023-07-08T14:25:15;96818.72;;;26.86;54.61
70954;BME280;58618;47.490;8.736;2023-07-08T14:28:03;96817.66;;;26.94;59.40
70954;BME280;58618;47.490;8.736;2023-07-08T14:30:52;96819.03;;;26.81;60.59
70954;BME280;58618;47.490;8.736;2023-07-08T14:33:39;96814.56;;;26.85;57.57
70954;BME280;58618;47.490;8.736;2023-07-08T14:36:28;96814.47;;;26.71;56.73
70954;BME280;58618;47.490;8.736;2023-07-08T14:39:17;96808.09;;;26.79;53.38
70954;BME280;58618;47.490;8.736;2023-07-08T14:42:05;96807.31;;;26.75;62.09
70954;BME280;58618;47.490;8.736;2023-07-08T14:44:52;96808.09;;;26.79;54.67
70954;BME280;58618;47.490;8.736;2023-07-08T14:47:39;96809.72;;;26.94;53.46
70954;BME280;58618;47.490;8.736;2023-07-08T14:50:27;96805.94;;;27.02;53.41
70954;BME280;58618;47.490;8.736;2023-07-08T14:53:18;96805.19;;;26.98;52.27